EDT,Max TemperatureF,Mean TemperatureF,Min TemperatureF,Max Dew PointF,MeanDew PointF,Min DewpointF,Max Humidity, Mean Humidity, Min Humidity, Max Sea Level PressureIn, Mean Sea Level PressureIn, Min Sea Level PressureIn, Max VisibilityMiles, Mean VisibilityMiles, Min VisibilityMiles, Max Wind SpeedMPH, Mean Wind SpeedMPH, Max Gust SpeedMPH,PrecipitationIn, CloudCover, Events, WindDirDegrees
2013-9-1,78,72,66,73,70,66,100,97,83,29.82,29.80,29.77,10,9,2,13,6,,0.00,6,,207
2013-9-2,81,72,61,72,66,58,100,88,47,29.97,29.85,29.78,10,8,4,14,6,20,0.00,3,,316
2013-9-3,74,62,51,58,55,52,100,78,55,30.09,30.05,29.97,10,10,10,12,5,17,0.00,4,,340
2013-9-4,82,68,53,61,57,54,100,84,40,30.17,30.12,30.07,10,9,1,12,4,,0.00,0,,246
2013-9-5,80,68,57,64,60,47,100,76,49,30.23,30.19,30.13,10,10,10,9,5,,0.00,1,,42
2013-9-6,82,67,52,63,53,46,88,58,34,30.26,30.19,30.08,10,10,2,10,5,,0.00,0,,126
2013-9-7,86,72,59,68,63,56,91,72,45,30.08,30.01,29.94,10,10,10,15,7,18,0.00,1,,211
2013-9-8,83,72,63,70,67,64,100,85,64,30.02,29.98,29.94,10,10,9,14,6,,0.00,2,,83
2013-9-9,92,78,64,73,69,64,100,80,51,30.01,29.97,29.90,10,10,7,17,7,25,0.00,1,,175
2013-9-10,95,84,73,73,70,63,98,68,34,30.09,30.04,29.96,10,10,6,16,10,,0.00,0,,229
2013-9-11,95,83,71,72,67,59,100,62,34,30.11,30.05,29.98,10,10,9,20,10,22,0.00,0,,248
2013-9-12,82,72,60,72,69,48,100,94,34,30.01,29.99,29.86,10,8,1,22,9,32,0.91,5,Rain-Thunderstorm,283
2013-9-13,67,58,48,54,46,42,87,66,41,30.14,30.09,30.02,10,10,10,15,9,22,0.00,2,,360
2013-9-14,70,56,41,47,42,34,100,64,27,30.23,30.16,30.10,10,10,10,7,3,,0.00,0,,114
2013-9-15,74,60,47,60,52,42,100,80,43,30.13,30.08,30.01,10,10,6,13,6,,0.21,4,Rain,155
2013-9-16,64,58,49,59,56,49,100,94,67,30.32,30.21,30.10,10,9,4,10,6,,0.01,7,,58
2013-9-17,72,58,46,54,50,47,100,77,53,30.37,30.29,30.18,10,10,10,10,7,,0.00,1,,90
2013-9-18,81,68,57,68,59,50,95,79,53,30.16,30.10,30.02,10,10,10,12,6,,0.03,4,Rain,154
2013-9-19,80,72,64,72,68,64,100,98,74,30.06,30.03,29.90,10,9,2,18,7,24,0.91,6,Rain-Thunderstorm,199
2013-9-20,77,70,64,72,68,61,100,89,70,29.93,29.85,29.81,10,10,5,16,11,,0.26,5,Rain,245
2013-9-21,70,60,52,58,51,47,100,74,46,29.93,29.84,29.78,10,10,8,20,10,24,0.00,1,,329
2013-9-22,67,55,44,52,47,45,100,80,48,30.05,30.00,29.93,10,9,2,10,4,,0.00,1,,1
2013-9-23,69,56,42,49,46,43,100,76,45,30.14,30.09,30.06,10,10,8,10,6,,0.00,0,,91
2013-9-24,71,58,44,51,48,45,100,75,45,30.11,30.03,29.95,10,10,9,10,6,17,0.00,1,,90
2013-9-25,74,60,48,54,51,48,100,78,44,29.98,29.94,29.92,10,10,7,10,6,,0.00,2,,61
2013-9-26,77,62,47,56,51,48,100,88,40,30.10,30.03,29.97,10,6,0,12,5,,0.00,0,Fog,52
2013-9-27,79,62,47,54,48,42,95,64,28,30.20,30.15,30.12,10,10,10,14,6,,0.00,0,,81
2013-9-28,82,66,51,58,55,50,98,71,43,30.17,30.09,30.01,10,10,10,14,7,20,0.00,1,,160
2013-9-29,69,60,51,63,59,52,100,93,62,30.02,30.00,29.98,10,8,1,12,7,,0.22,6,Fog-Rain,232
2013-9-30,73,60,46,64,53,46,100,97,58,30.04,30.00,29.94,10,4,0,10,2,,0.01,3,Fog,169